sensor_id;sensor_type;location;lat;lon;timestamp;P1;durP1;ratioP1;P2;durP2;ratioP2
24425;SDS011;12611;44.446;26.000;2022-07-10T00:00:07;7.25;;;4.15;;
24425;SDS011;12611;44.446;26.000;2022-07-10T00:02:38;6.28;;;4.70;;
24425;SDS011;12611;44.446;26.000;2022-07-10T00:05:08;5.35;;;3.42;;
24425;SDS011;12611;44.446;26.000;2022-07-10T00:07:44;5.30;;;3.40;;
24425;SDS011;12611;44.446;26.000;2022-07-10T00:10:13;4.97;;;3.47;;
24425;SDS011;12611;44.446;26.000;2022-07-10T00:12:42;4.97;;;3.30;;
24425;SDS011;12611;44.446;26.000;2022-07-10T00:15:12;7.60;;;3.40;;
24425;SDS011;12611;44.446;26.000;2022-07-10T00:17:41;5.50;;;3.10;;
24425;SDS011;12611;44.446;26.000;2022-07-10T00:20:11;7.00;;;3.35;;
24425;SDS011;12611;44.446;26.000;2022-07-10T00:22:40;4.45;;;3.28;;
24425;SDS011;12611;44.446;26.000;2022-07-10T00:25:10;6.43;;;3.55;;
24425;SDS011;12611;44.446;26.000;2022-07-10T00:27:40;4.85;;;3.13;;
24425;SDS011;12611;44.446;26.000;2022-07-10T00:30:09;6.82;;;3.40;;
24425;SDS011;12611;44.446;26.000;2022-07-10T00:32:39;8.75;;;3.63;;
24425;SDS011;12611;44.446;26.000;2022-07-10T00:35:08;6.30;;;3.47;;
24425;SDS011;12611;44.446;26.000;2022-07-10T00:37:36;5.03;;;3.22;;
24425;SDS011;12611;44.446;26.000;2022-07-10T00:40:05;4.65;;;3.00;;
24425;SDS011;12611;44.446;26.000;2022-07-10T00:42:34;4.10;;;3.40;;
24425;SDS011;12611;44.446;26.000;2022-07-10T00:45:02;6.97;;;3.40;;
24425;SDS011;12611;44.446;26.000;2022-07-10T00:47:31;6.18;;;3.30;;
24425;SDS011;12611;44.446;26.000;2022-07-10T00:50:01;7.75;;;3.55;;
24425;SDS011;12611;44.446;26.000;2022-07-10T00:52:30;6.97;;;3.35;;
24425;SDS011;12611;44.446;26.000;2022-07-10T00:54:59;5.03;;;3.35;;
24425;SDS011;12611;44.446;26.000;2022-07-10T00:57:28;6.13;;;3.55;;
24425;SDS011;12611;44.446;26.000;2022-07-10T00:59:56;6.50;;;3.30;;
24425;SDS011;12611;44.446;26.000;2022-07-10T01:02:26;5.20;;;3.53;;
24425;SDS011;12611;44.446;26.000;2022-07-10T01:04:56;5.22;;;3.58;;
24425;SDS011;12611;44.446;26.000;2022-07-10T01:07:26;6.53;;;3.67;;
24425;SDS011;12611;44.446;26.000;2022-07-10T01:09:55;9.82;;;3.25;;
24425;SDS011;12611;44.446;26.000;2022-07-10T01:12:25;8.07;;;3.60;;
24425;SDS011;12611;44.446;26.000;2022-07-10T01:14:55;4.05;;;2.83;;
24425;SDS011;12611;44.446;26.000;2022-07-10T01:17:23;9.77;;;3.80;;
24425;SDS011;12611;44.446;26.000;2022-07-10T01:19:55;5.28;;;3.13;;
24425;SDS011;12611;44.446;26.000;2022-07-10T01:22:25;3.92;;;2.83;;
24425;SDS011;12611;44.446;26.000;2022-07-10T01:24:53;4.80;;;3.13;;
24425;SDS011;12611;44.446;26.000;2022-07-10T01:27:21;3.10;;;2.70;;
24425;SDS011;12611;44.446;26.000;2022-07-10T01:29:50;6.38;;;3.40;;
24425;SDS011;12611;44.446;26.000;2022-07-10T01:32:20;5.45;;;2.95;;
24425;SDS011;12611;44.446;26.000;2022-07-10T01:34:49;8.27;;;3.35;;
24425;SDS011;12611;44.446;26.000;2022-07-10T01:37:17;4.72;;;3.22;;
24425;SDS011;12611;44.446;26.000;2022-07-10T01:39:47;6.03;;;4.10;;
24425;SDS011;12611;44.446;26.000;2022-07-10T01:42:15;5.82;;;3.00;;
24425;SDS011;12611;44.446;26.000;2022-07-10T01:44:44;8.13;;;2.95;;
24425;SDS011;12611;44.446;26.000;2022-07-10T01:47:12;4.20;;;2.90;;
24425;SDS011;12611;44.446;26.000;2022-07-10T01:49:40;5.82;;;3.30;;
24425;SDS011;12611;44.446;26.000;2022-07-10T01:52:09;4.60;;;3.20;;
24425;SDS011;12611;44.446;26.000;2022-07-10T01:54:38;5.82;;;3.22;;
24425;SDS011;12611;44.446;26.000;2022-07-10T01:57:08;5.38;;;3.33;;
24425;SDS011;12611;44.446;26.000;2022-07-10T01:59:37;5.13;;;3.13;;
24425;SDS011;12611;44.446;26.000;2022-07-10T02:02:05;4.53;;;2.70;;
24425;SDS011;12611;44.446;26.000;2022-07-10T02:04:34;4.78;;;3.20;;
24425;SDS011;12611;44.446;26.000;2022-07-10T02:07:07;4.05;;;2.95;;
24425;SDS011;12611;44.446;26.000;2022-07-10T02:09:36;5.45;;;3.33;;
24425;SDS011;12611;44.446;26.000;2022-07-10T02:12:05;8.10;;;3.05;;
24425;SDS011;12611;44.446;26.000;2022-07-10T02:14:36;5.68;;;3.72;;
24425;SDS011;12611;44.446;26.000;2022-07-10T02:17:04;4.72;;;3.15;;
24425;SDS011;12611;44.446;26.000;2022-07-10T02:19:33;6.63;;;3.30;;
24425;SDS011;12611;44.446;26.000;2022-07-10T02:22:02;10.35;;;3.35;;
24425;SDS011;12611;44.446;26.000;2022-07-10T02:24:31;4.80;;;3.17;;
24425;SDS011;12611;44.446;26.000;2022-07-10T02:27:00;7.28;;;3.50;;
24425;SDS011;12611;44.446;26.000;2022-07-10T02:29:29;5.55;;;3.35;;
24425;SDS011;12611;44.446;26.000;2022-07-10T02:31:58;6.70;;;3.20;;
24425;SDS011;12611;44.446;26.000;2022-07-10T02:34:26;5.80;;;3.60;;
24425;SDS011;12611;44.446;26.000;2022-07-10T02:36:56;3.65;;;2.83;;
24425;SDS011;12611;44.446;26.000;2022-07-10T02:39:24;4.13;;;3.10;;
24425;SDS011;12611;44.446;26.000;2022-07-10T02:41:52;6.30;;;3.50;;
24425;SDS011;12611;44.446;26.000;2022-07-10T02:44:21;5.78;;;3.17;;
24425;SDS011;12611;44.446;26.000;2022-07-10T02:46:51;7.93;;;3.03;;
24425;SDS011;12611;44.446;26.000;2022-07-10T02:49:19;3.67;;;2.85;;
24425;SDS011;12611;44.446;26.000;2022-07-10T02:51:47;4.85;;;2.60;;
24425;SDS011;12611;44.446;26.000;2022-07-10T02:54:17;6.80;;;2.70;;
24425;SDS011;12611;44.446;26.000;2022-07-10T02:56:45;4.72;;;2.55;;
24425;SDS011;12611;44.446;26.000;2022-07-10T02:59:13;4.63;;;2.95;;
24425;SDS011;12611;44.446;26.000;2022-07-10T03:01:43;6.05;;;3.03;;
24425;SDS011;12611;44.446;26.000;2022-07-10T03:04:14;5.28;;;2.55;;
24425;SDS011;12611;44.446;26.000;2022-07-10T03:06:43;5.90;;;2.95;;
24425;SDS011;12611;44.446;26.000;2022-07-10T03:09:11;5.80;;;2.78;;
24425;SDS011;12611;44.446;26.000;2022-07-10T03:11:40;6.10;;;2.75;;
24425;SDS011;12611;44.446;26.000;2022-07-10T03:14:08;5.00;;;2.90;;
24425;SDS011;12611;44.446;26.000;2022-07-10T03:16:37;4.07;;;2.80;;
24425;SDS011;12611;44.446;26.000;2022-07-10T03:19:05;3.72;;;2.90;;
24425;SDS011;12611;44.446;26.000;2022-07-10T03:21:35;6.35;;;2.72;;
24425;SDS011;12611;44.446;26.000;2022-07-10T03:24:03;5.38;;;3.03;;
24425;SDS011;12611;44.446;26.000;2022-07-10T03:26:32;16.58;;;3.67;;
24425;SDS011;12611;44.446;26.000;2022-07-10T03:29:01;3.63;;;2.70;;
24425;SDS011;12611;44.446;26.000;2022-07-10T03:31:29;4.93;;;2.67;;
24425;SDS011;12611;44.446;26.000;2022-07-10T03:33:58;4.88;;;3.25;;
24425;SDS011;12611;44.446;26.000;2022-07-10T03:36:26;8.93;;;3.40;;
24425;SDS011;12611;44.446;26.000;2022-07-10T03:38:56;6.05;;;3.10;;
24425;SDS011;12611;44.446;26.000;2022-07-10T03:41:24;4.53;;;3.30;;
24425;SDS011;12611;44.446;26.000;2022-07-10T03:43:53;4.43;;;3.05;;
24425;SDS011;12611;44.446;26.000;2022-07-10T03:46:21;4.38;;;3.17;;
24425;SDS011;12611;44.446;26.000;2022-07-10T03:48:50;4.82;;;3.17;;
24425;SDS011;12611;44.446;26.000;2022-07-10T03:51:19;6.35;;;3.28;;
24425;SDS011;12611;44.446;26.000;2022-07-10T03:53:47;5.65;;;2.97;;
24425;SDS011;12611;44.446;26.000;2022-07-10T03:56:17;6.00;;;3.63;;
24425;SDS011;12611;44.446;26.000;2022-07-10T03:58:59;6.28;;;3.75;;
24425;SDS011;12611;44.446;26.000;2022-07-10T04:01:27;9.18;;;3.80;;
24425;SDS011;12611;44.446;26.000;2022-07-10T04:03:56;7.25;;;3.90;;
24425;SDS011;12611;44.446;26.000;2022-07-10T04:06:25;5.75;;;3.33;;
24425;SDS011;12611;44.446;26.000;2022-07-10T04:08:53;6.28;;;3.88;;
24425;SDS011;12611;44.446;26.000;2022-07-10T04:11:23;5.75;;;3.72;;
24425;SDS011;12611;44.446;26.000;2022-07-10T04:13:52;5.10;;;3.60;;
24425;SDS011;12611;44.446;26.000;2022-07-10T04:16:20;4.55;;;3.40;;
24425;SDS011;12611;44.446;26.000;2022-07-10T04:18:49;6.22;;;3.50;;
24425;SDS011;12611;44.446;26.000;2022-07-10T04:21:17;6.78;;;3.28;;
24425;SDS011;12611;44.446;26.000;2022-07-10T04:23:46;7.85;;;2.97;;
24425;SDS011;12611;44.446;26.000;2022-07-10T04:26:14;4.97;;;3.38;;
24425;SDS011;12611;44.446;26.000;2022-07-10T04:28:44;10.20;;;3.92;;
24425;SDS011;12611;44.446;26.000;2022-07-10T04:31:12;8.00;;;4.47;;
24425;SDS011;12611;44.446;26.000;2022-07-10T04:33:41;4.93;;;3.38;;
24425;SDS011;12611;44.446;26.000;2022-07-10T04:36:09;6.05;;;3.28;;
24425;SDS011;12611;44.446;26.000;2022-07-10T04:38:37;4.85;;;3.60;;
24425;SDS011;12611;44.446;26.000;2022-07-10T04:41:06;5.15;;;3.40;;
24425;SDS011;12611;44.446;26.000;2022-07-10T04:43:35;7.78;;;3.33;;
24425;SDS011;12611;44.446;26.000;2022-07-10T04:46:05;5.72;;;3.50;;
24425;SDS011;12611;44.446;26.000;2022-07-10T04:48:34;4.13;;;3.10;;
24425;SDS011;12611;44.446;26.000;2022-07-10T04:51:03;5.18;;;3.47;;
24425;SDS011;12611;44.446;26.000;2022-07-10T04:53:31;5.22;;;3.85;;
24425;SDS011;12611;44.446;26.000;2022-07-10T04:55:59;5.53;;;3.80;;
24425;SDS011;12611;44.446;26.000;2022-07-10T04:58:28;5.88;;;4.55;;
24425;SDS011;12611;44.446;26.000;2022-07-10T05:00:57;5.85;;;3.63;;
24425;SDS011;12611;44.446;26.000;2022-07-10T05:03:26;5.85;;;3.90;;
24425;SDS011;12611;44.446;26.000;2022-07-10T05:05:56;5.55;;;3.92;;
24425;SDS011;12611;44.446;26.000;2022-07-10T05:08:24;8.18;;;3.70;;
24425;SDS011;12611;44.446;26.000;2022-07-10T05:10:52;8.07;;;3.65;;
24425;SDS011;12611;44.446;26.000;2022-07-10T05:13:21;5.57;;;4.25;;
24425;SDS011;12611;44.446;26.000;2022-07-10T05:15:49;8.70;;;4.85;;
24425;SDS011;12611;44.446;26.000;2022-07-10T05:18:17;7.10;;;4.50;;
24425;SDS011;12611;44.446;26.000;2022-07-10T05:20:48;8.23;;;4.35;;
24425;SDS011;12611;44.446;26.000;2022-07-10T05:23:16;6.03;;;4.00;;
24425;SDS011;12611;44.446;26.000;2022-07-10T05:25:44;6.20;;;4.50;;
24425;SDS011;12611;44.446;26.000;2022-07-10T05:28:13;8.82;;;4.00;;
24425;SDS011;12611;44.446;26.000;2022-07-10T05:30:41;7.68;;;3.95;;
24425;SDS011;12611;44.446;26.000;2022-07-10T05:33:10;7.00;;;4.13;;
24425;SDS011;12611;44.446;26.000;2022-07-10T05:35:38;8.57;;;4.05;;
24425;SDS011;12611;44.446;26.000;2022-07-10T05:38:08;5.63;;;3.40;;
24425;SDS011;12611;44.446;26.000;2022-07-10T05:40:36;5.97;;;4.20;;
24425;SDS011;12611;44.446;26.000;2022-07-10T05:43:05;7.30;;;4.30;;
24425;SDS011;12611;44.446;26.000;2022-07-10T05:45:33;9.10;;;4.53;;
24425;SDS011;12611;44.446;26.000;2022-07-10T05:48:02;7.15;;;4.40;;
24425;SDS011;12611;44.446;26.000;2022-07-10T05:50:30;10.18;;;5.50;;
24425;SDS011;12611;44.446;26.000;2022-07-10T05:52:59;11.23;;;6.05;;
24425;SDS011;12611;44.446;26.000;2022-07-10T05:55:29;14.85;;;6.00;;
24425;SDS011;12611;44.446;26.000;2022-07-10T05:57:57;13.27;;;6.00;;
24425;SDS011;12611;44.446;26.000;2022-07-10T06:00:26;12.10;;;5.60;;
24425;SDS011;12611;44.446;26.000;2022-07-10T06:02:55;8.82;;;5.30;;
24425;SDS011;12611;44.446;26.000;2022-07-10T06:05:23;6.65;;;4.97;;
24425;SDS011;12611;44.446;26.000;2022-07-10T06:07:52;9.00;;;5.38;;
24425;SDS011;12611;44.446;26.000;2022-07-10T06:10:20;7.47;;;5.10;;
24425;SDS011;12611;44.446;26.000;2022-07-10T06:12:50;9.10;;;4.50;;
24425;SDS011;12611;44.446;26.000;2022-07-10T06:15:18;8.90;;;4.57;;
24425;SDS011;12611;44.446;26.000;2022-07-10T06:17:55;10.80;;;5.03;;
24425;SDS011;12611;44.446;26.000;2022-07-10T06:20:24;6.75;;;4.35;;
24425;SDS011;12611;44.446;26.000;2022-07-10T06:23:00;9.27;;;4.45;;
24425;SDS011;12611;44.446;26.000;2022-07-10T06:25:29;5.50;;;3.70;;
24425;SDS011;12611;44.446;26.000;2022-07-10T06:27:59;9.43;;;3.92;;
24425;SDS011;12611;44.446;26.000;2022-07-10T06:30:27;5.38;;;3.78;;
24425;SDS011;12611;44.446;26.000;2022-07-10T06:32:55;9.75;;;3.67;;
24425;SDS011;12611;44.446;26.000;2022-07-10T06:35:24;6.22;;;3.63;;
24425;SDS011;12611;44.446;26.000;2022-07-10T06:37:52;7.00;;;3.35;;
24425;SDS011;12611;44.446;26.000;2022-07-10T06:40:21;5.95;;;3.50;;
24425;SDS011;12611;44.446;26.000;2022-07-10T06:42:49;4.75;;;3.20;;
24425;SDS011;12611;44.446;26.000;2022-07-10T06:45:19;6.22;;;3.33;;
24425;SDS011;12611;44.446;26.000;2022-07-10T06:47:48;7.00;;;3.42;;
24425;SDS011;12611;44.446;26.000;2022-07-10T06:50:26;4.10;;;2.97;;
24425;SDS011;12611;44.446;26.000;2022-07-10T06:52:57;4.47;;;3.17;;
24425;SDS011;12611;44.446;26.000;2022-07-10T06:55:26;5.45;;;3.20;;
24425;SDS011;12611;44.446;26.000;2022-07-10T06:57:55;4.40;;;2.75;;
24425;SDS011;12611;44.446;26.000;2022-07-10T07:00:25;6.88;;;3.40;;
24425;SDS011;12611;44.446;26.000;2022-07-10T07:02:53;5.03;;;3.65;;
24425;SDS011;12611;44.446;26.000;2022-07-10T07:05:22;5.22;;;3.30;;
24425;SDS011;12611;44.446;26.000;2022-07-10T07:07:51;4.32;;;3.03;;
24425;SDS011;12611;44.446;26.000;2022-07-10T07:10:19;6.38;;;3.33;;
24425;SDS011;12611;44.446;26.000;2022-07-10T07:12:48;6.50;;;3.33;;
24425;SDS011;12611;44.446;26.000;2022-07-10T07:15:16;5.10;;;2.67;;
24425;SDS011;12611;44.446;26.000;2022-07-10T07:17:48;7.25;;;3.22;;
24425;SDS011;12611;44.446;26.000;2022-07-10T07:20:34;4.88;;;3.10;;
24425;SDS011;12611;44.446;26.000;2022-07-10T07:23:21;6.35;;;3.03;;
24425;SDS011;12611;44.446;26.000;2022-07-10T07:25:50;4.00;;;2.83;;
24425;SDS011;12611;44.446;26.000;2022-07-10T07:28:19;4.43;;;3.25;;
24425;SDS011;12611;44.446;26.000;2022-07-10T07:30:47;3.67;;;3.05;;
24425;SDS011;12611;44.446;26.000;2022-07-10T07:33:18;8.85;;;3.63;;
24425;SDS011;12611;44.446;26.000;2022-07-10T07:35:46;4.57;;;3.03;;
24425;SDS011;12611;44.446;26.000;2022-07-10T07:38:15;6.25;;;3.30;;
24425;SDS011;12611;44.446;26.000;2022-07-10T07:40:43;6.53;;;3.20;;
24425;SDS011;12611;44.446;26.000;2022-07-10T07:43:13;5.68;;;3.20;;
24425;SDS011;12611;44.446;26.000;2022-07-10T07:45:41;5.00;;;3.40;;
24425;SDS011;12611;44.446;26.000;2022-07-10T07:48:09;4.25;;;3.33;;
24425;SDS011;12611;44.446;26.000;2022-07-10T07:50:39;5.60;;;3.35;;
24425;SDS011;12611;44.446;26.000;2022-07-10T07:53:08;6.45;;;3.42;;
24425;SDS011;12611;44.446;26.000;2022-07-10T07:55:36;7.10;;;3.40;;
24425;SDS011;12611;44.446;26.000;2022-07-10T07:58:06;6.60;;;3.30;;
24425;SDS011;12611;44.446;26.000;2022-07-10T08:00:34;5.63;;;3.38;;
24425;SDS011;12611;44.446;26.000;2022-07-10T08:03:04;4.90;;;3.40;;
24425;SDS011;12611;44.446;26.000;2022-07-10T08:05:33;5.30;;;3.47;;
24425;SDS011;12611;44.446;26.000;2022-07-10T08:08:03;5.32;;;3.10;;
24425;SDS011;12611;44.446;26.000;2022-07-10T08:10:35;5.57;;;2.85;;
24425;SDS011;12611;44.446;26.000;2022-07-10T08:13:10;3.67;;;2.85;;
24425;SDS011;12611;44.446;26.000;2022-07-10T08:15:38;2.95;;;2.45;;
24425;SDS011;12611;44.446;26.000;2022-07-10T08:18:07;5.93;;;2.85;;
24425;SDS011;12611;44.446;26.000;2022-07-10T08:20:35;5.78;;;2.80;;
24425;SDS011;12611;44.446;26.000;2022-07-10T08:23:05;6.32;;;2.75;;
24425;SDS011;12611;44.446;26.000;2022-07-10T08:25:33;4.47;;;2.65;;
24425;SDS011;12611;44.446;26.000;2022-07-10T08:28:02;4.85;;;2.90;;
24425;SDS011;12611;44.446;26.000;2022-07-10T08:30:32;3.67;;;2.78;;
24425;SDS011;12611;44.446;26.000;2022-07-10T08:33:01;3.45;;;2.40;;
24425;SDS011;12611;44.446;26.000;2022-07-10T08:35:30;4.03;;;2.83;;
24425;SDS011;12611;44.446;26.000;2022-07-10T08:37:58;3.78;;;2.72;;
24425;SDS011;12611;44.446;26.000;2022-07-10T08:40:31;5.47;;;2.80;;
24425;SDS011;12611;44.446;26.000;2022-07-10T08:43:03;4.85;;;2.67;;
24425;SDS011;12611;44.446;26.000;2022-07-10T08:45:34;5.43;;;3.00;;
24425;SDS011;12611;44.446;26.000;2022-07-10T08:48:03;4.32;;;2.90;;
24425;SDS011;12611;44.446;26.000;2022-07-10T08:50:37;5.20;;;3.42;;
24425;SDS011;12611;44.446;26.000;2022-07-10T08:53:13;6.47;;;3.25;;
24425;SDS011;12611;44.446;26.000;2022-07-10T08:55:47;4.95;;;3.08;;
24425;SDS011;12611;44.446;26.000;2022-07-10T08:58:16;4.72;;;3.17;;
24425;SDS011;12611;44.446;26.000;2022-07-10T09:00:47;3.05;;;2.47;;
24425;SDS011;12611;44.446;26.000;2022-07-10T09:03:16;3.47;;;2.70;;
24425;SDS011;12611;44.446;26.000;2022-07-10T09:05:44;4.47;;;3.08;;
24425;SDS011;12611;44.446;26.000;2022-07-10T09:08:23;5.45;;;2.70;;
24425;SDS011;12611;44.446;26.000;2022-07-10T09:11:06;4.97;;;2.60;;
24425;SDS011;12611;44.446;26.000;2022-07-10T09:13:50;5.65;;;2.60;;
24425;SDS011;12611;44.446;26.000;2022-07-10T09:16:20;3.58;;;2.38;;
24425;SDS011;12611;44.446;26.000;2022-07-10T09:18:50;3.85;;;2.80;;
24425;SDS011;12611;44.446;26.000;2022-07-10T09:21:19;4.07;;;2.70;;
24425;SDS011;12611;44.446;26.000;2022-07-10T09:23:55;6.90;;;2.83;;
24425;SDS011;12611;44.446;26.000;2022-07-10T09:26:33;3.70;;;2.63;;
24425;SDS011;12611;44.446;26.000;2022-07-10T09:29:06;5.13;;;2.80;;
24425;SDS011;12611;44.446;26.000;2022-07-10T09:31:53;4.63;;;2.80;;
24425;SDS011;12611;44.446;26.000;2022-07-10T09:37:19;4.00;;;2.92;;
24425;SDS011;12611;44.446;26.000;2022-07-10T09:39:51;3.80;;;2.95;;
24425;SDS011;12611;44.446;26.000;2022-07-10T09:42:31;4.25;;;2.63;;
24425;SDS011;12611;44.446;26.000;2022-07-10T09:45:14;3.42;;;2.65;;
24425;SDS011;12611;44.446;26.000;2022-07-10T09:47:44;7.47;;;2.97;;
24425;SDS011;12611;44.446;26.000;2022-07-10T09:50:21;4.75;;;3.30;;
24425;SDS011;12611;44.446;26.000;2022-07-10T09:52:54;4.53;;;2.65;;
24425;SDS011;12611;44.446;26.000;2022-07-10T09:55:24;5.20;;;2.67;;
24425;SDS011;12611;44.446;26.000;2022-07-10T09:57:56;4.70;;;3.05;;
24425;SDS011;12611;44.446;26.000;2022-07-10T10:00:26;4.78;;;2.83;;
24425;SDS011;12611;44.446;26.000;2022-07-10T10:02:57;3.30;;;2.67;;
24425;SDS011;12611;44.446;26.000;2022-07-10T10:05:30;4.68;;;2.78;;
24425;SDS011;12611;44.446;26.000;2022-07-10T10:08:09;4.22;;;2.60;;
24425;SDS011;12611;44.446;26.000;2022-07-10T10:10:42;3.35;;;2.60;;
24425;SDS011;12611;44.446;26.000;2022-07-10T10:13:17;3.97;;;2.65;;
24425;SDS011;12611;44.446;26.000;2022-07-10T10:15:47;5.35;;;2.88;;
24425;SDS011;12611;44.446;26.000;2022-07-10T10:18:17;4.88;;;2.92;;
24425;SDS011;12611;44.446;26.000;2022-07-10T10:20:46;4.72;;;2.83;;
24425;SDS011;12611;44.446;26.000;2022-07-10T10:23:15;4.43;;;3.13;;
24425;SDS011;12611;44.446;26.000;2022-07-10T10:25:47;6.45;;;3.33;;
24425;SDS011;12611;44.446;26.000;2022-07-10T10:28:17;2.90;;;2.30;;
24425;SDS011;12611;44.446;26.000;2022-07-10T10:30:53;5.07;;;2.70;;
24425;SDS011;12611;44.446;26.000;2022-07-10T10:33:43;4.10;;;2.50;;
24425;SDS011;12611;44.446;26.000;2022-07-10T10:36:14;3.58;;;2.92;;
24425;SDS011;12611;44.446;26.000;2022-07-10T10:39:04;3.35;;;2.58;;
24425;SDS011;12611;44.446;26.000;2022-07-10T10:41:39;4.35;;;2.83;;
24425;SDS011;12611;44.446;26.000;2022-07-10T10:44:26;4.30;;;2.95;;
24425;SDS011;12611;44.446;26.000;2022-07-10T10:47:03;8.77;;;3.20;;
24425;SDS011;12611;44.446;26.000;2022-07-10T10:49:49;4.30;;;2.83;;
24425;SDS011;12611;44.446;26.000;2022-07-10T10:52:23;4.28;;;2.90;;
24425;SDS011;12611;44.446;26.000;2022-07-10T10:57:41;4.38;;;2.80;;
24425;SDS011;12611;44.446;26.000;2022-07-10T11:00:32;6.53;;;2.97;;
24425;SDS011;12611;44.446;26.000;2022-07-10T11:03:11;6.32;;;2.70;;
24425;SDS011;12611;44.446;26.000;2022-07-10T11:05:44;5.50;;;2.60;;
24425;SDS011;12611;44.446;26.000;2022-07-10T11:08:14;12.18;;;3.00;;
24425;SDS011;12611;44.446;26.000;2022-07-10T11:14:09;4.85;;;3.35;;
24425;SDS011;12611;44.446;26.000;2022-07-10T11:16:47;4.82;;;3.72;;
24425;SDS011;12611;44.446;26.000;2022-07-10T11:19:20;7.72;;;3.92;;
24425;SDS011;12611;44.446;26.000;2022-07-10T11:21:56;8.68;;;4.25;;
24425;SDS011;12611;44.446;26.000;2022-07-10T11:24:40;7.20;;;3.95;;
24425;SDS011;12611;44.446;26.000;2022-07-10T11:27:24;6.97;;;4.78;;
24425;SDS011;12611;44.446;26.000;2022-07-10T11:29:58;7.03;;;4.80;;
24425;SDS011;12611;44.446;26.000;2022-07-10T11:32:28;5.28;;;3.88;;
24425;SDS011;12611;44.446;26.000;2022-07-10T11:34:57;4.40;;;3.08;;
24425;SDS011;12611;44.446;26.000;2022-07-10T11:37:26;5.05;;;3.05;;
24425;SDS011;12611;44.446;26.000;2022-07-10T11:42:47;2.95;;;2.25;;
24425;SDS011;12611;44.446;26.000;2022-07-10T11:45:23;5.78;;;2.97;;
24425;SDS011;12611;44.446;26.000;2022-07-10T11:47:58;4.50;;;3.35;;
24425;SDS011;12611;44.446;26.000;2022-07-10T11:50:27;7.57;;;3.88;;
24425;SDS011;12611;44.446;26.000;2022-07-10T11:53:01;6.20;;;3.30;;
24425;SDS011;12611;44.446;26.000;2022-07-10T11:55:30;7.63;;;3.67;;
24425;SDS011;12611;44.446;26.000;2022-07-10T11:58:15;7.00;;;3.30;;
24425;SDS011;12611;44.446;26.000;2022-07-10T12:00:44;6.65;;;2.80;;
24425;SDS011;12611;44.446;26.000;2022-07-10T12:03:27;4.93;;;2.65;;
24425;SDS011;12611;44.446;26.000;2022-07-10T12:06:00;3.10;;;2.20;;
24425;SDS011;12611;44.446;26.000;2022-07-10T12:08:30;4.38;;;2.50;;
24425;SDS011;12611;44.446;26.000;2022-07-10T12:11:11;3.85;;;1.90;;
24425;SDS011;12611;44.446;26.000;2022-07-10T12:13:41;3.63;;;1.90;;
24425;SDS011;12611;44.446;26.000;2022-07-10T12:16:09;3.13;;;2.17;;
24425;SDS011;12611;44.446;26.000;2022-07-10T12:18:39;1.90;;;1.65;;
24425;SDS011;12611;44.446;26.000;2022-07-10T12:21:10;4.13;;;2.25;;
24425;SDS011;12611;44.446;26.000;2022-07-10T12:23:40;5.25;;;2.05;;
24425;SDS011;12611;44.446;26.000;2022-07-10T12:26:11;2.83;;;1.67;;
24425;SDS011;12611;44.446;26.000;2022-07-10T12:28:51;4.57;;;1.60;;
24425;SDS011;12611;44.446;26.000;2022-07-10T12:31:21;5.72;;;1.70;;
24425;SDS011;12611;44.446;26.000;2022-07-10T12:33:53;6.45;;;1.73;;
24425;SDS011;12611;44.446;26.000;2022-07-10T12:36:24;3.47;;;2.35;;
24425;SDS011;12611;44.446;26.000;2022-07-10T12:38:56;3.85;;;2.72;;
24425;SDS011;12611;44.446;26.000;2022-07-10T12:41:25;4.50;;;2.30;;
24425;SDS011;12611;44.446;26.000;2022-07-10T12:43:54;5.00;;;2.50;;
24425;SDS011;12611;44.446;26.000;2022-07-10T12:46:23;4.80;;;2.80;;
24425;SDS011;12611;44.446;26.000;2022-07-10T12:49:03;3.65;;;2.78;;
24425;SDS011;12611;44.446;26.000;2022-07-10T12:51:33;3.90;;;3.00;;
24425;SDS011;12611;44.446;26.000;2022-07-10T12:54:32;7.75;;;2.83;;
24425;SDS011;12611;44.446;26.000;2022-07-10T12:57:01;4.18;;;3.10;;
24425;SDS011;12611;44.446;26.000;2022-07-10T12:59:32;4.40;;;2.88;;
24425;SDS011;12611;44.446;26.000;2022-07-10T13:04:53;4.35;;;2.70;;
24425;SDS011;12611;44.446;26.000;2022-07-10T13:07:29;6.43;;;2.83;;
24425;SDS011;12611;44.446;26.000;2022-07-10T13:09:58;12.05;;;2.42;;
24425;SDS011;12611;44.446;26.000;2022-07-10T13:12:30;5.55;;;2.60;;
24425;SDS011;12611;44.446;26.000;2022-07-10T13:14:58;3.30;;;2.67;;
24425;SDS011;12611;44.446;26.000;2022-07-10T13:17:27;3.75;;;2.42;;
24425;SDS011;12611;44.446;26.000;2022-07-10T13:19:57;4.57;;;2.60;;
24425;SDS011;12611;44.446;26.000;2022-07-10T13:22:25;3.53;;;2.30;;
24425;SDS011;12611;44.446;26.000;2022-07-10T13:24:54;3.58;;;2.58;;
24425;SDS011;12611;44.446;26.000;2022-07-10T13:27:22;2.75;;;2.00;;
24425;SDS011;12611;44.446;26.000;2022-07-10T13:29:51;3.63;;;2.30;;
24425;SDS011;12611;44.446;26.000;2022-07-10T13:32:19;5.18;;;2.55;;
24425;SDS011;12611;44.446;26.000;2022-07-10T13:34:56;3.03;;;2.30;;
24425;SDS011;12611;44.446;26.000;2022-07-10T13:37:25;2.95;;;2.28;;
24425;SDS011;12611;44.446;26.000;2022-07-10T13:39:54;4.30;;;2.63;;
24425;SDS011;12611;44.446;26.000;2022-07-10T13:42:23;3.13;;;2.15;;
24425;SDS011;12611;44.446;26.000;2022-07-10T13:44:51;3.05;;;2.25;;
24425;SDS011;12611;44.446;26.000;2022-07-10T13:47:20;4.28;;;2.40;;
24425;SDS011;12611;44.446;26.000;2022-07-10T13:49:48;3.50;;;2.10;;
24425;SDS011;12611;44.446;26.000;2022-07-10T13:52:18;5.75;;;2.50;;
24425;SDS011;12611;44.446;26.000;2022-07-10T13:54:47;4.47;;;2.53;;
24425;SDS011;12611;44.446;26.000;2022-07-10T13:57:15;5.30;;;2.17;;
24425;SDS011;12611;44.446;26.000;2022-07-10T13:59:44;9.90;;;2.30;;
24425;SDS011;12611;44.446;26.000;2022-07-10T14:02:13;5.30;;;2.10;;
24425;SDS011;12611;44.446;26.000;2022-07-10T14:04:42;4.72;;;1.83;;
24425;SDS011;12611;44.446;26.000;2022-07-10T14:07:11;2.15;;;1.55;;
24425;SDS011;12611;44.446;26.000;2022-07-10T14:09:41;3.10;;;1.35;;
24425;SDS011;12611;44.446;26.000;2022-07-10T14:12:09;4.40;;;1.50;;
24425;SDS011;12611;44.446;26.000;2022-07-10T14:14:38;2.63;;;1.60;;
24425;SDS011;12611;44.446;26.000;2022-07-10T14:17:07;2.60;;;1.20;;
24425;SDS011;12611;44.446;26.000;2022-07-10T14:19:35;3.05;;;1.00;;
24425;SDS011;12611;44.446;26.000;2022-07-10T14:22:04;1.88;;;1.02;;
24425;SDS011;12611;44.446;26.000;2022-07-10T14:24:32;4.35;;;1.30;;
24425;SDS011;12611;44.446;26.000;2022-07-10T14:27:07;2.22;;;1.50;;
24425;SDS011;12611;44.446;26.000;2022-07-10T14:29:37;1.30;;;1.10;;
24425;SDS011;12611;44.446;26.000;2022-07-10T14:32:06;1.10;;;1.00;;
24425;SDS011;12611;44.446;26.000;2022-07-10T14:34:34;3.10;;;1.00;;
24425;SDS011;12611;44.446;26.000;2022-07-10T14:37:03;2.95;;;1.05;;
24425;SDS011;12611;44.446;26.000;2022-07-10T14:39:32;2.30;;;1.30;;
24425;SDS011;12611;44.446;26.000;2022-07-10T14:42:00;3.90;;;1.17;;
24425;SDS011;12611;44.446;26.000;2022-07-10T14:44:30;1.83;;;1.35;;
24425;SDS011;12611;44.446;26.000;2022-07-10T14:47:00;2.60;;;1.30;;
24425;SDS011;12611;44.446;26.000;2022-07-10T14:49:28;5.53;;;1.33;;
24425;SDS011;12611;44.446;26.000;2022-07-10T14:51:57;2.53;;;1.20;;
24425;SDS011;12611;44.446;26.000;2022-07-10T14:54:25;5.22;;;1.20;;
24425;SDS011;12611;44.446;26.000;2022-07-10T14:56:54;4.43;;;1.15;;
24425;SDS011;12611;44.446;26.000;2022-07-10T14:59:30;2.88;;;1.20;;
24425;SDS011;12611;44.446;26.000;2022-07-10T15:01:58;2.45;;;1.23;;
24425;SDS011;12611;44.446;26.000;2022-07-10T15:04:27;3.13;;;1.25;;
24425;SDS011;12611;44.446;26.000;2022-07-10T15:06:55;1.63;;;1.10;;